sensor_id;sensor_type;location;lat;lon;timestamp;temperature;humidity
33739;DHT22;20063;51.730;11.110;2023-05-16T00:01:13;11.90;99.90
33739;DHT22;20063;51.730;11.110;2023-05-16T00:03:41;11.80;99.90
33739;DHT22;20063;51.730;11.110;2023-05-16T00:06:07;11.80;99.90
33739;DHT22;20063;51.730;11.110;2023-05-16T00:08:33;11.70;99.90
33739;DHT22;20063;51.730;11.110;2023-05-16T00:10:59;11.60;99.90
33739;DHT22;20063;51.730;11.110;2023-05-16T00:13:25;11.60;99.90
33739;DHT22;20063;51.730;11.110;2023-05-16T00:15:54;11.50;99.90
33739;DHT22;20063;51.730;11.110;2023-05-16T00:18:21;11.40;99.90
33739;DHT22;20063;51.730;11.110;2023-05-16T00:20:50;11.40;99.90
33739;DHT22;20063;51.730;11.110;2023-05-16T00:23:17;11.30;99.90
33739;DHT22;20063;51.730;11.110;2023-05-16T00:25:43;11.20;99.90
33739;DHT22;20063;51.730;11.110;2023-05-16T00:28:09;11.10;99.90
33739;DHT22;20063;51.730;11.110;2023-05-16T00:30:34;11.10;99.90
33739;DHT22;20063;51.730;11.110;2023-05-16T00:33:00;10.90;99.90
33739;DHT22;20063;51.730;11.110;2023-05-16T00:35:27;10.90;99.90
33739;DHT22;20063;51.730;11.110;2023-05-16T00:37:52;10.90;99.90
33739;DHT22;20063;51.730;11.110;2023-05-16T00:40:19;10.90;99.90
33739;DHT22;20063;51.730;11.110;2023-05-16T00:42:44;11.00;99.90
33739;DHT22;20063;51.730;11.110;2023-05-16T00:45:10;10.80;99.90
33739;DHT22;20063;51.730;11.110;2023-05-16T00:47:36;10.80;99.90
33739;DHT22;20063;51.730;11.110;2023-05-16T00:50:02;10.80;99.90
33739;DHT22;20063;51.730;11.110;2023-05-16T00:52:30;10.70;99.90
33739;DHT22;20063;51.730;11.110;2023-05-16T00:54:57;10.70;99.90
33739;DHT22;20063;51.730;11.110;2023-05-16T00:57:23;10.70;99.90
33739;DHT22;20063;51.730;11.110;2023-05-16T00:59:50;10.60;99.90
33739;DHT22;20063;51.730;11.110;2023-05-16T01:02:16;10.50;99.90
33739;DHT22;20063;51.730;11.110;2023-05-16T01:04:45;10.40;99.90
33739;DHT22;20063;51.730;11.110;2023-05-16T01:07:12;10.40;99.90
33739;DHT22;20063;51.730;11.110;2023-05-16T01:09:38;10.40;99.90
33739;DHT22;20063;51.730;11.110;2023-05-16T01:12:36;10.30;99.90
33739;DHT22;20063;51.730;11.110;2023-05-16T01:15:12;10.20;99.90
33739;DHT22;20063;51.730;11.110;2023-05-16T01:18:01;10.20;99.90
33739;DHT22;20063;51.730;11.110;2023-05-16T01:28:15;10.00;99.90
33739;DHT22;20063;51.730;11.110;2023-05-16T01:30:43;10.00;99.90
33739;DHT22;20063;51.730;11.110;2023-05-16T01:33:09;10.00;99.90
33739;DHT22;20063;51.730;11.110;2023-05-16T01:35:42;9.90;99.90
33739;DHT22;20063;51.730;11.110;2023-05-16T01:38:26;9.90;99.90
33739;DHT22;20063;51.730;11.110;2023-05-16T01:41:01;9.90;99.90
33739;DHT22;20063;51.730;11.110;2023-05-16T01:43:40;9.80;99.90
33739;DHT22;20063;51.730;11.110;2023-05-16T01:46:32;9.80;99.90
33739;DHT22;20063;51.730;11.110;2023-05-16T01:49:24;9.80;99.90
33739;DHT22;20063;51.730;11.110;2023-05-16T01:51:59;9.80;99.90
33739;DHT22;20063;51.730;11.110;2023-05-16T01:54:29;9.80;99.90
33739;DHT22;20063;51.730;11.110;2023-05-16T01:56:55;9.70;99.90
33739;DHT22;20063;51.730;11.110;2023-05-16T01:59:23;9.60;99.90
33739;DHT22;20063;51.730;11.110;2023-05-16T02:01:51;9.60;99.90
33739;DHT22;20063;51.730;11.110;2023-05-16T02:04:17;9.60;99.90
33739;DHT22;20063;51.730;11.110;2023-05-16T02:06:43;9.60;99.90
33739;DHT22;20063;51.730;11.110;2023-05-16T02:09:09;9.60;99.90
33739;DHT22;20063;51.730;11.110;2023-05-16T02:11:35;9.60;99.90
33739;DHT22;20063;51.730;11.110;2023-05-16T02:14:01;9.60;99.90
33739;DHT22;20063;51.730;11.110;2023-05-16T02:16:29;9.60;99.90
33739;DHT22;20063;51.730;11.110;2023-05-16T02:18:55;9.60;99.90
33739;DHT22;20063;51.730;11.110;2023-05-16T02:21:21;9.60;99.90
33739;DHT22;20063;51.730;11.110;2023-05-16T02:23:46;9.70;99.90
33739;DHT22;20063;51.730;11.110;2023-05-16T02:26:12;9.70;99.90
33739;DHT22;20063;51.730;11.110;2023-05-16T02:28:38;9.70;99.90
33739;DHT22;20063;51.730;11.110;2023-05-16T02:31:03;9.80;99.90
33739;DHT22;20063;51.730;11.110;2023-05-16T02:33:29;9.80;99.90
33739;DHT22;20063;51.730;11.110;2023-05-16T02:35:55;9.80;99.90
33739;DHT22;20063;51.730;11.110;2023-05-16T02:38:21;9.90;99.90
33739;DHT22;20063;51.730;11.110;2023-05-16T02:40:47;9.90;99.90
33739;DHT22;20063;51.730;11.110;2023-05-16T02:43:12;9.90;99.90
33739;DHT22;20063;51.730;11.110;2023-05-16T02:45:38;10.00;99.90
33739;DHT22;20063;51.730;11.110;2023-05-16T02:48:04;10.00;99.90
33739;DHT22;20063;51.730;11.110;2023-05-16T02:50:30;10.00;99.90
33739;DHT22;20063;51.730;11.110;2023-05-16T02:52:55;10.00;99.90
33739;DHT22;20063;51.730;11.110;2023-05-16T02:55:24;10.00;99.90
33739;DHT22;20063;51.730;11.110;2023-05-16T02:57:50;10.00;99.90
33739;DHT22;20063;51.730;11.110;2023-05-16T03:00:15;10.10;99.90
33739;DHT22;20063;51.730;11.110;2023-05-16T03:02:41;10.10;99.90
33739;DHT22;20063;51.730;11.110;2023-05-16T03:05:08;10.10;99.90
33739;DHT22;20063;51.730;11.110;2023-05-16T03:07:34;10.10;99.90
33739;DHT22;20063;51.730;11.110;2023-05-16T03:10:00;10.10;99.90
33739;DHT22;20063;51.730;11.110;2023-05-16T03:12:27;10.10;99.90
33739;DHT22;20063;51.730;11.110;2023-05-16T03:14:52;10.10;99.90
33739;DHT22;20063;51.730;11.110;2023-05-16T03:17:20;10.10;99.90
33739;DHT22;20063;51.730;11.110;2023-05-16T03:19:45;10.10;99.90
33739;DHT22;20063;51.730;11.110;2023-05-16T03:22:11;10.00;99.90
33739;DHT22;20063;51.730;11.110;2023-05-16T03:24:36;10.10;99.90
33739;DHT22;20063;51.730;11.110;2023-05-16T03:27:02;10.10;99.90
33739;DHT22;20063;51.730;11.110;2023-05-16T03:29:29;10.00;99.90
33739;DHT22;20063;51.730;11.110;2023-05-16T03:31:56;9.90;99.90
33739;DHT22;20063;51.730;11.110;2023-05-16T03:34:21;9.90;99.90
33739;DHT22;20063;51.730;11.110;2023-05-16T03:36:48;9.90;99.90
33739;DHT22;20063;51.730;11.110;2023-05-16T03:39:15;9.90;99.90
33739;DHT22;20063;51.730;11.110;2023-05-16T03:41:43;9.90;99.90
33739;DHT22;20063;51.730;11.110;2023-05-16T03:44:09;9.90;99.90
33739;DHT22;20063;51.730;11.110;2023-05-16T03:46:35;9.90;99.90
33739;DHT22;20063;51.730;11.110;2023-05-16T03:49:01;9.90;99.90
33739;DHT22;20063;51.730;11.110;2023-05-16T03:51:26;9.90;99.90
33739;DHT22;20063;51.730;11.110;2023-05-16T03:53:53;9.90;99.90
33739;DHT22;20063;51.730;11.110;2023-05-16T03:56:18;10.00;99.90
33739;DHT22;20063;51.730;11.110;2023-05-16T03:58:44;10.00;99.90
33739;DHT22;20063;51.730;11.110;2023-05-16T04:01:10;10.00;99.90
33739;DHT22;20063;51.730;11.110;2023-05-16T04:03:35;10.00;99.90
33739;DHT22;20063;51.730;11.110;2023-05-16T04:06:03;10.00;99.90
33739;DHT22;20063;51.730;11.110;2023-05-16T04:08:28;10.00;99.90
33739;DHT22;20063;51.730;11.110;2023-05-16T04:10:55;10.00;99.90
33739;DHT22;20063;51.730;11.110;2023-05-16T04:13:20;10.00;99.90
33739;DHT22;20063;51.730;11.110;2023-05-16T04:15:46;10.00;99.90
33739;DHT22;20063;51.730;11.110;2023-05-16T04:18:12;10.00;99.90
33739;DHT22;20063;51.730;11.110;2023-05-16T04:20:37;10.00;99.90
33739;DHT22;20063;51.730;11.110;2023-05-16T04:23:03;10.00;99.90
33739;DHT22;20063;51.730;11.110;2023-05-16T04:25:29;10.00;99.90
33739;DHT22;20063;51.730;11.110;2023-05-16T04:27:55;10.00;99.90
33739;DHT22;20063;51.730;11.110;2023-05-16T04:30:21;10.10;99.90
33739;DHT22;20063;51.730;11.110;2023-05-16T04:32:47;10.00;99.90
33739;DHT22;20063;51.730;11.110;2023-05-16T04:35:12;10.00;99.90
33739;DHT22;20063;51.730;11.110;2023-05-16T04:37:38;10.00;99.90
33739;DHT22;20063;51.730;11.110;2023-05-16T04:40:04;10.00;99.90
33739;DHT22;20063;51.730;11.110;2023-05-16T04:42:33;10.00;99.90
33739;DHT22;20063;51.730;11.110;2023-05-16T04:44:59;10.10;99.90
33739;DHT22;20063;51.730;11.110;2023-05-16T04:47:25;10.10;99.90
33739;DHT22;20063;51.730;11.110;2023-05-16T04:49:53;10.10;99.90
33739;DHT22;20063;51.730;11.110;2023-05-16T04:52:19;10.10;99.90
33739;DHT22;20063;51.730;11.110;2023-05-16T04:54:45;10.10;99.90
33739;DHT22;20063;51.730;11.110;2023-05-16T04:57:10;10.00;99.90
33739;DHT22;20063;51.730;11.110;2023-05-16T04:59:36;10.00;99.90
33739;DHT22;20063;51.730;11.110;2023-05-16T05:02:03;10.00;99.90
33739;DHT22;20063;51.730;11.110;2023-05-16T05:04:28;10.00;99.90
33739;DHT22;20063;51.730;11.110;2023-05-16T05:06:54;10.00;99.90
33739;DHT22;20063;51.730;11.110;2023-05-16T05:09:19;10.00;99.90
33739;DHT22;20063;51.730;11.110;2023-05-16T05:11:45;10.00;99.90
33739;DHT22;20063;51.730;11.110;2023-05-16T05:14:11;10.00;99.90
33739;DHT22;20063;51.730;11.110;2023-05-16T05:16:36;10.10;99.90
33739;DHT22;20063;51.730;11.110;2023-05-16T05:19:02;10.00;99.90
33739;DHT22;20063;51.730;11.110;2023-05-16T05:21:28;10.00;99.90
33739;DHT22;20063;51.730;11.110;2023-05-16T05:23:55;10.00;99.90
33739;DHT22;20063;51.730;11.110;2023-05-16T05:26:22;10.00;99.90
33739;DHT22;20063;51.730;11.110;2023-05-16T05:28:48;10.10;99.90
33739;DHT22;20063;51.730;11.110;2023-05-16T05:31:14;10.10;99.90
33739;DHT22;20063;51.730;11.110;2023-05-16T05:33:40;10.20;99.90
33739;DHT22;20063;51.730;11.110;2023-05-16T05:36:07;10.20;99.90
33739;DHT22;20063;51.730;11.110;2023-05-16T05:38:32;10.20;99.90
33739;DHT22;20063;51.730;11.110;2023-05-16T05:40:59;10.20;99.90
33739;DHT22;20063;51.730;11.110;2023-05-16T05:43:26;10.20;99.90
33739;DHT22;20063;51.730;11.110;2023-05-16T05:45:52;10.20;99.90
33739;DHT22;20063;51.730;11.110;2023-05-16T05:48:18;10.30;99.90
33739;DHT22;20063;51.730;11.110;2023-05-16T05:50:43;10.30;99.90
33739;DHT22;20063;51.730;11.110;2023-05-16T05:53:09;10.30;99.90
33739;DHT22;20063;51.730;11.110;2023-05-16T05:55:36;10.20;99.90
33739;DHT22;20063;51.730;11.110;2023-05-16T05:58:01;10.20;99.90
33739;DHT22;20063;51.730;11.110;2023-05-16T06:00:27;10.20;99.90
33739;DHT22;20063;51.730;11.110;2023-05-16T06:02:53;10.20;99.90
33739;DHT22;20063;51.730;11.110;2023-05-16T06:05:19;10.30;99.90
33739;DHT22;20063;51.730;11.110;2023-05-16T06:07:45;10.30;99.90
33739;DHT22;20063;51.730;11.110;2023-05-16T06:10:11;10.30;99.90
33739;DHT22;20063;51.730;11.110;2023-05-16T06:12:36;10.40;99.90
33739;DHT22;20063;51.730;11.110;2023-05-16T06:15:05;10.40;99.90
33739;DHT22;20063;51.730;11.110;2023-05-16T06:17:31;10.30;99.90
33739;DHT22;20063;51.730;11.110;2023-05-16T06:19:56;10.30;99.90
33739;DHT22;20063;51.730;11.110;2023-05-16T06:22:22;10.20;99.90
33739;DHT22;20063;51.730;11.110;2023-05-16T06:24:48;10.20;99.90
33739;DHT22;20063;51.730;11.110;2023-05-16T06:27:14;10.20;99.90
33739;DHT22;20063;51.730;11.110;2023-05-16T06:29:39;10.30;99.90
33739;DHT22;20063;51.730;11.110;2023-05-16T06:32:05;10.30;99.90
33739;DHT22;20063;51.730;11.110;2023-05-16T06:34:31;10.30;99.90
33739;DHT22;20063;51.730;11.110;2023-05-16T06:36:56;10.30;99.90
33739;DHT22;20063;51.730;11.110;2023-05-16T06:39:22;10.30;99.90
33739;DHT22;20063;51.730;11.110;2023-05-16T06:41:47;10.30;99.90
33739;DHT22;20063;51.730;11.110;2023-05-16T06:44:13;10.20;99.90
33739;DHT22;20063;51.730;11.110;2023-05-16T06:46:41;10.30;99.90
33739;DHT22;20063;51.730;11.110;2023-05-16T06:49:07;10.30;99.90
33739;DHT22;20063;51.730;11.110;2023-05-16T06:51:33;10.40;99.90
33739;DHT22;20063;51.730;11.110;2023-05-16T06:53:58;10.40;99.90
33739;DHT22;20063;51.730;11.110;2023-05-16T06:56:24;10.40;99.90
33739;DHT22;20063;51.730;11.110;2023-05-16T06:58:50;10.40;99.90
33739;DHT22;20063;51.730;11.110;2023-05-16T07:01:16;10.50;99.90
33739;DHT22;20063;51.730;11.110;2023-05-16T07:03:41;10.60;99.90
33739;DHT22;20063;51.730;11.110;2023-05-16T07:06:07;10.60;99.90
33739;DHT22;20063;51.730;11.110;2023-05-16T07:08:33;10.50;99.90
33739;DHT22;20063;51.730;11.110;2023-05-16T07:11:00;10.50;99.90
33739;DHT22;20063;51.730;11.110;2023-05-16T07:13:27;10.50;99.90
33739;DHT22;20063;51.730;11.110;2023-05-16T07:15:52;10.60;99.90
33739;DHT22;20063;51.730;11.110;2023-05-16T07:18:18;10.60;99.90
33739;DHT22;20063;51.730;11.110;2023-05-16T07:20:44;10.60;99.90
33739;DHT22;20063;51.730;11.110;2023-05-16T07:23:13;10.60;99.90
33739;DHT22;20063;51.730;11.110;2023-05-16T07:25:38;10.60;99.90
33739;DHT22;20063;51.730;11.110;2023-05-16T07:28:04;10.60;99.90
33739;DHT22;20063;51.730;11.110;2023-05-16T07:30:30;10.60;99.90
33739;DHT22;20063;51.730;11.110;2023-05-16T07:32:55;10.60;99.90
33739;DHT22;20063;51.730;11.110;2023-05-16T07:35:21;10.60;99.90
33739;DHT22;20063;51.730;11.110;2023-05-16T07:37:46;10.50;99.90
33739;DHT22;20063;51.730;11.110;2023-05-16T07:40:12;10.50;99.90
33739;DHT22;20063;51.730;11.110;2023-05-16T07:42:38;10.40;99.90
33739;DHT22;20063;51.730;11.110;2023-05-16T07:45:05;10.40;99.90
33739;DHT22;20063;51.730;11.110;2023-05-16T07:47:31;10.20;99.90
33739;DHT22;20063;51.730;11.110;2023-05-16T07:49:57;10.10;99.90
33739;DHT22;20063;51.730;11.110;2023-05-16T07:52:22;10.00;99.90
33739;DHT22;20063;51.730;11.110;2023-05-16T07:54:48;9.90;99.90
33739;DHT22;20063;51.730;11.110;2023-05-16T07:57:14;9.70;99.90
33739;DHT22;20063;51.730;11.110;2023-05-16T07:59:40;9.60;99.90
33739;DHT22;20063;51.730;11.110;2023-05-16T08:02:06;9.50;99.90
33739;DHT22;20063;51.730;11.110;2023-05-16T08:04:32;9.50;99.90
33739;DHT22;20063;51.730;11.110;2023-05-16T08:06:57;9.50;99.90
33739;DHT22;20063;51.730;11.110;2023-05-16T08:09:23;9.40;99.90
33739;DHT22;20063;51.730;11.110;2023-05-16T08:11:49;9.40;99.90
33739;DHT22;20063;51.730;11.110;2023-05-16T08:14:14;9.30;99.90
33739;DHT22;20063;51.730;11.110;2023-05-16T08:16:40;9.30;99.90
33739;DHT22;20063;51.730;11.110;2023-05-16T08:19:06;9.40;99.90
33739;DHT22;20063;51.730;11.110;2023-05-16T08:21:32;9.40;99.90
33739;DHT22;20063;51.730;11.110;2023-05-16T08:23:57;9.50;99.90
33739;DHT22;20063;51.730;11.110;2023-05-16T08:26:23;9.50;99.90
33739;DHT22;20063;51.730;11.110;2023-05-16T08:28:50;9.60;99.90
33739;DHT22;20063;51.730;11.110;2023-05-16T08:31:16;9.60;99.90
33739;DHT22;20063;51.730;11.110;2023-05-16T08:33:41;9.70;99.90
33739;DHT22;20063;51.730;11.110;2023-05-16T08:36:08;9.70;99.90
33739;DHT22;20063;51.730;11.110;2023-05-16T08:38:37;9.80;99.90
33739;DHT22;20063;51.730;11.110;2023-05-16T08:41:03;9.80;99.90
33739;DHT22;20063;51.730;11.110;2023-05-16T08:43:28;9.90;99.90
33739;DHT22;20063;51.730;11.110;2023-05-16T08:45:54;10.00;99.90
33739;DHT22;20063;51.730;11.110;2023-05-16T08:48:22;10.00;99.90
33739;DHT22;20063;51.730;11.110;2023-05-16T08:50:48;10.10;99.90
33739;DHT22;20063;51.730;11.110;2023-05-16T08:53:21;10.10;99.90
33739;DHT22;20063;51.730;11.110;2023-05-16T08:55:50;10.10;99.90
33739;DHT22;20063;51.730;11.110;2023-05-16T08:58:17;10.20;99.90
33739;DHT22;20063;51.730;11.110;2023-05-16T09:00:43;10.30;99.90
33739;DHT22;20063;51.730;11.110;2023-05-16T09:03:08;10.40;99.90
33739;DHT22;20063;51.730;11.110;2023-05-16T09:05:34;10.50;99.90
33739;DHT22;20063;51.730;11.110;2023-05-16T09:08:00;10.50;99.90
33739;DHT22;20063;51.730;11.110;2023-05-16T09:10:25;10.60;99.90
33739;DHT22;20063;51.730;11.110;2023-05-16T09:12:51;10.70;99.90
33739;DHT22;20063;51.730;11.110;2023-05-16T09:15:17;10.70;99.90
33739;DHT22;20063;51.730;11.110;2023-05-16T09:17:45;10.80;99.90
33739;DHT22;20063;51.730;11.110;2023-05-16T09:20:18;10.70;99.90
33739;DHT22;20063;51.730;11.110;2023-05-16T09:22:55;10.70;99.90
33739;DHT22;20063;51.730;11.110;2023-05-16T09:25:22;10.80;99.90
33739;DHT22;20063;51.730;11.110;2023-05-16T09:27:54;10.90;99.90
33739;DHT22;20063;51.730;11.110;2023-05-16T09:30:21;10.90;99.90
33739;DHT22;20063;51.730;11.110;2023-05-16T09:32:51;11.00;99.90
33739;DHT22;20063;51.730;11.110;2023-05-16T09:35:19;11.00;99.90
33739;DHT22;20063;51.730;11.110;2023-05-16T09:37:45;11.10;99.90
33739;DHT22;20063;51.730;11.110;2023-05-16T09:40:12;11.10;99.90
33739;DHT22;20063;51.730;11.110;2023-05-16T09:42:38;11.10;99.90
33739;DHT22;20063;51.730;11.110;2023-05-16T09:45:04;11.10;99.90
33739;DHT22;20063;51.730;11.110;2023-05-16T09:47:29;11.10;99.90
33739;DHT22;20063;51.730;11.110;2023-05-16T09:49:56;11.20;99.90
33739;DHT22;20063;51.730;11.110;2023-05-16T09:52:21;11.20;99.90
33739;DHT22;20063;51.730;11.110;2023-05-16T09:54:51;11.20;99.90
33739;DHT22;20063;51.730;11.110;2023-05-16T09:57:17;11.30;99.90
33739;DHT22;20063;51.730;11.110;2023-05-16T09:59:44;11.30;99.90
33739;DHT22;20063;51.730;11.110;2023-05-16T10:02:12;11.20;99.90
33739;DHT22;20063;51.730;11.110;2023-05-16T10:04:41;11.20;99.90
33739;DHT22;20063;51.730;11.110;2023-05-16T10:07:07;11.20;99.90
33739;DHT22;20063;51.730;11.110;2023-05-16T10:09:35;11.20;99.90
33739;DHT22;20063;51.730;11.110;2023-05-16T10:12:02;11.20;99.90
33739;DHT22;20063;51.730;11.110;2023-05-16T10:14:32;11.40;99.90
33739;DHT22;20063;51.730;11.110;2023-05-16T10:16:59;11.40;99.90
33739;DHT22;20063;51.730;11.110;2023-05-16T10:19:25;11.60;99.90
33739;DHT22;20063;51.730;11.110;2023-05-16T10:21:53;11.70;99.90
33739;DHT22;20063;51.730;11.110;2023-05-16T10:27:10;11.70;99.90
33739;DHT22;20063;51.730;11.110;2023-05-16T10:29:37;11.70;99.90
33739;DHT22;20063;51.730;11.110;2023-05-16T10:32:05;11.70;99.90
33739;DHT22;20063;51.730;11.110;2023-05-16T10:34:31;11.60;99.90
33739;DHT22;20063;51.730;11.110;2023-05-16T10:36:58;11.50;99.90
33739;DHT22;20063;51.730;11.110;2023-05-16T10:39:25;11.50;99.90
33739;DHT22;20063;51.730;11.110;2023-05-16T10:41:51;11.40;99.90
33739;DHT22;20063;51.730;11.110;2023-05-16T10:44:17;11.50;99.90
33739;DHT22;20063;51.730;11.110;2023-05-16T10:46:44;11.50;99.90
33739;DHT22;20063;51.730;11.110;2023-05-16T10:49:20;11.60;99.90
33739;DHT22;20063;51.730;11.110;2023-05-16T10:54:40;11.70;99.90
33739;DHT22;20063;51.730;11.110;2023-05-16T10:57:10;11.80;99.90
33739;DHT22;20063;51.730;11.110;2023-05-16T10:59:47;11.80;99.90
33739;DHT22;20063;51.730;11.110;2023-05-16T11:02:23;11.80;99.90
33739;DHT22;20063;51.730;11.110;2023-05-16T11:04:50;11.90;99.90
33739;DHT22;20063;51.730;11.110;2023-05-16T11:07:18;11.90;99.90
33739;DHT22;20063;51.730;11.110;2023-05-16T11:09:44;11.90;99.90
33739;DHT22;20063;51.730;11.110;2023-05-16T11:12:11;11.90;99.90
33739;DHT22;20063;51.730;11.110;2023-05-16T11:14:39;11.80;99.90
33739;DHT22;20063;51.730;11.110;2023-05-16T11:24:36;12.20;99.90
33739;DHT22;20063;51.730;11.110;2023-05-16T11:27:03;12.20;99.90
33739;DHT22;20063;51.730;11.110;2023-05-16T11:29:34;12.20;99.90
33739;DHT22;20063;51.730;11.110;2023-05-16T11:32:01;12.30;99.90
33739;DHT22;20063;51.730;11.110;2023-05-16T11:34:29;12.30;99.90
33739;DHT22;20063;51.730;11.110;2023-05-16T11:36:56;12.40;99.90
33739;DHT22;20063;51.730;11.110;2023-05-16T11:39:22;12.40;99.90
33739;DHT22;20063;51.730;11.110;2023-05-16T11:41:52;12.50;99.90
33739;DHT22;20063;51.730;11.110;2023-05-16T11:44:17;12.60;99.90
33739;DHT22;20063;51.730;11.110;2023-05-16T11:46:43;12.60;99.90
33739;DHT22;20063;51.730;11.110;2023-05-16T11:49:08;12.70;99.90
33739;DHT22;20063;51.730;11.110;2023-05-16T11:51:41;12.70;99.90
33739;DHT22;20063;51.730;11.110;2023-05-16T11:54:10;12.60;99.90
33739;DHT22;20063;51.730;11.110;2023-05-16T11:56:38;12.70;99.90
33739;DHT22;20063;51.730;11.110;2023-05-16T11:59:06;12.70;99.90
33739;DHT22;20063;51.730;11.110;2023-05-16T12:01:36;12.70;99.90
33739;DHT22;20063;51.730;11.110;2023-05-16T12:04:07;12.90;99.90
33739;DHT22;20063;51.730;11.110;2023-05-16T12:06:35;12.90;99.90
33739;DHT22;20063;51.730;11.110;2023-05-16T12:09:02;13.10;99.90
33739;DHT22;20063;51.730;11.110;2023-05-16T12:11:43;13.30;99.90
33739;DHT22;20063;51.730;11.110;2023-05-16T12:14:11;13.30;99.90
33739;DHT22;20063;51.730;11.110;2023-05-16T12:16:38;13.40;99.90
33739;DHT22;20063;51.730;11.110;2023-05-16T12:19:07;13.40;99.90
33739;DHT22;20063;51.730;11.110;2023-05-16T12:21:33;13.40;99.90
33739;DHT22;20063;51.730;11.110;2023-05-16T12:23:58;13.50;99.90
33739;DHT22;20063;51.730;11.110;2023-05-16T12:26:29;13.50;99.90
33739;DHT22;20063;51.730;11.110;2023-05-16T12:28:58;13.60;99.90
33739;DHT22;20063;51.730;11.110;2023-05-16T12:31:28;13.70;99.90
33739;DHT22;20063;51.730;11.110;2023-05-16T12:33:58;13.70;99.90
33739;DHT22;20063;51.730;11.110;2023-05-16T12:36:24;13.70;99.90
33739;DHT22;20063;51.730;11.110;2023-05-16T12:38:53;13.80;99.90
33739;DHT22;20063;51.730;11.110;2023-05-16T12:41:20;13.80;99.90
33739;DHT22;20063;51.730;11.110;2023-05-16T12:43:46;13.90;99.90
33739;DHT22;20063;51.730;11.110;2023-05-16T12:46:12;13.90;99.50
33739;DHT22;20063;51.730;11.110;2023-05-16T12:48:38;13.90;97.40
33739;DHT22;20063;51.730;11.110;2023-05-16T12:51:17;14.00;94.90
33739;DHT22;20063;51.730;11.110;2023-05-16T12:53:44;13.90;94.40
33739;DHT22;20063;51.730;11.110;2023-05-16T12:56:11;13.90;93.30
33739;DHT22;20063;51.730;11.110;2023-05-16T12:58:38;13.80;99.90
33739;DHT22;20063;51.730;11.110;2023-05-16T13:01:04;13.80;99.90
33739;DHT22;20063;51.730;11.110;2023-05-16T13:03:34;13.70;99.90
33739;DHT22;20063;51.730;11.110;2023-05-16T13:06:01;13.80;99.90
33739;DHT22;20063;51.730;11.110;2023-05-16T13:08:29;13.80;99.90
33739;DHT22;20063;51.730;11.110;2023-05-16T13:10:54;13.90;99.90
33739;DHT22;20063;51.730;11.110;2023-05-16T13:13:21;14.10;99.90
33739;DHT22;20063;51.730;11.110;2023-05-16T13:15:46;14.20;99.90
33739;DHT22;20063;51.730;11.110;2023-05-16T13:18:12;14.20;99.90
33739;DHT22;20063;51.730;11.110;2023-05-16T13:20:38;14.20;97.00
33739;DHT22;20063;51.730;11.110;2023-05-16T13:23:04;14.10;97.40
33739;DHT22;20063;51.730;11.110;2023-05-16T13:25:30;14.10;99.90
33739;DHT22;20063;51.730;11.110;2023-05-16T13:27:57;14.10;99.90
33739;DHT22;20063;51.730;11.110;2023-05-16T13:30:23;14.30;99.90
33739;DHT22;20063;51.730;11.110;2023-05-16T13:32:49;14.50;99.90
33739;DHT22;20063;51.730;11.110;2023-05-16T13:35:15;14.60;99.60
33739;DHT22;20063;51.730;11.110;2023-05-16T13:37:41;14.60;87.10
33739;DHT22;20063;51.730;11.110;2023-05-16T13:40:07;14.50;84.40
33739;DHT22;20063;51.730;11.110;2023-05-16T13:42:35;14.60;87.50
33739;DHT22;20063;51.730;11.110;2023-05-16T13:45:04;14.60;91.10
33739;DHT22;20063;51.730;11.110;2023-05-16T13:47:33;14.70;83.30
33739;DHT22;20063;51.730;11.110;2023-05-16T13:49:59;14.70;89.10
33739;DHT22;20063;51.730;11.110;2023-05-16T13:52:30;14.70;92.00
33739;DHT22;20063;51.730;11.110;2023-05-16T13:54:56;14.80;91.90
33739;DHT22;20063;51.730;11.110;2023-05-16T13:57:21;14.90;90.90
33739;DHT22;20063;51.730;11.110;2023-05-16T13:59:47;14.80;90.50
33739;DHT22;20063;51.730;11.110;2023-05-16T14:02:14;14.70;86.80
33739;DHT22;20063;51.730;11.110;2023-05-16T14:04:40;14.70;90.30
33739;DHT22;20063;51.730;11.110;2023-05-16T14:07:05;14.60;90.40
33739;DHT22;20063;51.730;11.110;2023-05-16T14:09:31;14.50;88.10
33739;DHT22;20063;51.730;11.110;2023-05-16T14:11:59;14.40;90.20
33739;DHT22;20063;51.730;11.110;2023-05-16T14:14:27;14.40;90.40
33739;DHT22;20063;51.730;11.110;2023-05-16T14:16:52;14.40;93.10
33739;DHT22;20063;51.730;11.110;2023-05-16T14:19:18;14.30;93.20
33739;DHT22;20063;51.730;11.110;2023-05-16T14:21:43;14.40;93.20
33739;DHT22;20063;51.730;11.110;2023-05-16T14:24:09;14.40;90.20
33739;DHT22;20063;51.730;11.110;2023-05-16T14:26:34;14.40;92.50
33739;DHT22;20063;51.730;11.110;2023-05-16T14:29:00;14.50;97.60
33739;DHT22;20063;51.730;11.110;2023-05-16T14:31:26;14.60;95.50
33739;DHT22;20063;51.730;11.110;2023-05-16T14:33:51;14.60;97.00
33739;DHT22;20063;51.730;11.110;2023-05-16T14:36:17;14.70;94.20
33739;DHT22;20063;51.730;11.110;2023-05-16T14:38:42;14.60;96.30
33739;DHT22;20063;51.730;11.110;2023-05-16T14:41:08;14.70;92.50
33739;DHT22;20063;51.730;11.110;2023-05-16T14:43:33;14.50;89.80
33739;DHT22;20063;51.730;11.110;2023-05-16T14:45:59;14.50;93.80
33739;DHT22;20063;51.730;11.110;2023-05-16T14:48:25;14.50;72.00
33739;DHT22;20063;51.730;11.110;2023-05-16T14:50:52;14.50;73.60
33739;DHT22;20063;51.730;11.110;2023-05-16T14:53:17;14.50;75.30
33739;DHT22;20063;51.730;11.110;2023-05-16T14:55:43;14.60;67.40
33739;DHT22;20063;51.730;11.110;2023-05-16T14:58:09;14.60;69.10
33739;DHT22;20063;51.730;11.110;2023-05-16T15:00:35;14.60;62.60
33739;DHT22;20063;51.730;11.110;2023-05-16T15:03:03;14.70;67.90
33739;DHT22;20063;51.730;11.110;2023-05-16T15:05:29;14.80;71.50
33739;DHT22;20063;51.730;11.110;2023-05-16T15:07:55;14.90;67.20
33739;DHT22;20063;51.730;11.110;2023-05-16T15:10:20;14.80;72.60
33739;DHT22;20063;51.730;11.110;2023-05-16T15:12:49;14.80;78.40
33739;DHT22;20063;51.730;11.110;2023-05-16T15:15:14;14.80;74.00
33739;DHT22;20063;51.730;11.110;2023-05-16T15:17:40;14.70;79.20
33739;DHT22;20063;51.730;11.110;2023-05-16T15:20:10;14.80;76.40
33739;DHT22;20063;51.730;11.110;2023-05-16T15:22:37;14.80;79.50
33739;DHT22;20063;51.730;11.110;2023-05-16T15:25:04;14.90;70.70
33739;DHT22;20063;51.730;11.110;2023-05-16T15:27:30;14.90;69.50
33739;DHT22;20063;51.730;11.110;2023-05-16T15:29:56;15.00;69.80
33739;DHT22;20063;51.730;11.110;2023-05-16T15:32:22;14.90;72.80
33739;DHT22;20063;51.730;11.110;2023-05-16T15:34:48;14.80;83.90
33739;DHT22;20063;51.730;11.110;2023-05-16T15:37:14;14.70;77.20